sensor_id;sensor_type;location;lat;lon;timestamp;pressure;altitude;pressure_sealevel;temperature;humidity
13314;BME280;6725;48.112;11.604;2023-04-25T00:02:04;94682.50;;;8.21;100.00
13314;BME280;6725;48.112;11.604;2023-04-25T00:04:30;94674.75;;;8.23;100.00
13314;BME280;6725;48.112;11.604;2023-04-25T00:06:59;94686.78;;;8.22;100.00
13314;BME280;6725;48.112;11.604;2023-04-25T00:09:27;94684.44;;;8.20;100.00
13314;BME280;6725;48.112;11.604;2023-04-25T00:11:52;94684.44;;;8.20;100.00
13314;BME280;6725;48.112;11.604;2023-04-25T00:14:17;94680.97;;;8.20;100.00
13314;BME280;6725;48.112;11.604;2023-04-25T00:16:43;94670.47;;;8.22;100.00
13314;BME280;6725;48.112;11.604;2023-04-25T00:19:09;94690.69;;;8.24;100.00
13314;BME280;6725;48.112;11.604;2023-04-25T00:21:35;94689.84;;;8.27;100.00
13314;BME280;6725;48.112;11.604;2023-04-25T00:24:00;94696.84;;;8.28;100.00
13314;BME280;6725;48.112;11.604;2023-04-25T00:26:27;94690.56;;;8.31;100.00
13314;BME280;6725;48.112;11.604;2023-04-25T00:28:52;94683.16;;;8.35;100.00
13314;BME280;6725;48.112;11.604;2023-04-25T00:31:17;94683.91;;;8.39;100.00
13314;BME280;6725;48.112;11.604;2023-04-25T00:33:43;94689.34;;;8.39;100.00
13314;BME280;6725;48.112;11.604;2023-04-25T00:36:08;94693.19;;;8.42;100.00
13314;BME280;6725;48.112;11.604;2023-04-25T00:38:34;94687.34;;;8.43;100.00
13314;BME280;6725;48.112;11.604;2023-04-25T00:41:00;94678.81;;;8.41;100.00
13314;BME280;6725;48.112;11.604;2023-04-25T00:43:29;94677.28;;;8.40;100.00
13314;BME280;6725;48.112;11.604;2023-04-25T00:45:56;94680.34;;;8.42;100.00
13314;BME280;6725;48.112;11.604;2023-04-25T00:48:22;94684.25;;;8.41;100.00
13314;BME280;6725;48.112;11.604;2023-04-25T00:50:53;94675.00;;;8.35;100.00
13314;BME280;6725;48.112;11.604;2023-04-25T00:53:23;94671.84;;;8.37;100.00
13314;BME280;6725;48.112;11.604;2023-04-25T00:55:49;94675.41;;;8.34;100.00
13314;BME280;6725;48.112;11.604;2023-04-25T00:58:21;94669.59;;;8.32;100.00
13314;BME280;6725;48.112;11.604;2023-04-25T01:00:48;94664.97;;;8.29;100.00
13314;BME280;6725;48.112;11.604;2023-04-25T01:03:15;94666.53;;;8.26;100.00
13314;BME280;6725;48.112;11.604;2023-04-25T01:05:47;94671.25;;;8.22;100.00
13314;BME280;6725;48.112;11.604;2023-04-25T01:08:13;94669.72;;;8.18;100.00
13314;BME280;6725;48.112;11.604;2023-04-25T01:10:39;94680.66;;;8.14;100.00
13314;BME280;6725;48.112;11.604;2023-04-25T01:13:04;94672.09;;;8.12;100.00
13314;BME280;6725;48.112;11.604;2023-04-25T01:15:30;94666.66;;;8.12;100.00
13314;BME280;6725;48.112;11.604;2023-04-25T01:17:55;94669.38;;;8.12;100.00
13314;BME280;6725;48.112;11.604;2023-04-25T01:20:22;94669.75;;;8.14;100.00
13314;BME280;6725;48.112;11.604;2023-04-25T01:22:52;94661.22;;;8.12;100.00
13314;BME280;6725;48.112;11.604;2023-04-25T01:25:18;94662.81;;;8.10;100.00
13314;BME280;6725;48.112;11.604;2023-04-25T01:27:44;94662.88;;;8.06;100.00
13314;BME280;6725;48.112;11.604;2023-04-25T01:30:10;94664.44;;;8.04;100.00
13314;BME280;6725;48.112;11.604;2023-04-25T01:32:36;94662.88;;;8.03;100.00
13314;BME280;6725;48.112;11.604;2023-04-25T01:35:06;94665.59;;;8.03;100.00
13314;BME280;6725;48.112;11.604;2023-04-25T01:37:39;94655.13;;;8.01;100.00
13314;BME280;6725;48.112;11.604;2023-04-25T01:40:05;94660.56;;;8.01;100.00
13314;BME280;6725;48.112;11.604;2023-04-25T01:42:32;94659.09;;;7.97;100.00
13314;BME280;6725;48.112;11.604;2023-04-25T01:44:58;94651.00;;;7.90;100.00
13314;BME280;6725;48.112;11.604;2023-04-25T01:47:23;94659.97;;;7.83;100.00
13314;BME280;6725;48.112;11.604;2023-04-25T01:49:49;94658.50;;;7.79;100.00
13314;BME280;6725;48.112;11.604;2023-04-25T01:52:14;94652.72;;;7.73;100.00
13314;BME280;6725;48.112;11.604;2023-04-25T01:54:40;94648.50;;;7.65;100.00
13314;BME280;6725;48.112;11.604;2023-04-25T01:57:09;94650.13;;;7.59;100.00
13314;BME280;6725;48.112;11.604;2023-04-25T01:59:35;94656.34;;;7.56;100.00
13314;BME280;6725;48.112;11.604;2023-04-25T02:02:00;94648.63;;;7.55;100.00
13314;BME280;6725;48.112;11.604;2023-04-25T02:04:29;94644.75;;;7.52;100.00
13314;BME280;6725;48.112;11.604;2023-04-25T02:06:54;94637.78;;;7.51;100.00
13314;BME280;6725;48.112;11.604;2023-04-25T02:09:19;94636.22;;;7.50;100.00
13314;BME280;6725;48.112;11.604;2023-04-25T02:11:45;94633.16;;;7.48;100.00
13314;BME280;6725;48.112;11.604;2023-04-25T02:14:10;94632.03;;;7.42;100.00
13314;BME280;6725;48.112;11.604;2023-04-25T02:16:35;94632.47;;;7.37;100.00
13314;BME280;6725;48.112;11.604;2023-04-25T02:19:01;94631.75;;;7.33;100.00
13314;BME280;6725;48.112;11.604;2023-04-25T02:21:27;94635.59;;;7.32;100.00
13314;BME280;6725;48.112;11.604;2023-04-25T02:23:52;94634.50;;;7.26;100.00
13314;BME280;6725;48.112;11.604;2023-04-25T02:26:17;94642.66;;;7.23;100.00
13314;BME280;6725;48.112;11.604;2023-04-25T02:28:43;94631.06;;;7.19;100.00
13314;BME280;6725;48.112;11.604;2023-04-25T02:31:08;94626.41;;;7.19;100.00
13314;BME280;6725;48.112;11.604;2023-04-25T02:33:33;94623.31;;;7.21;100.00
13314;BME280;6725;48.112;11.604;2023-04-25T02:35:59;94625.63;;;7.22;100.00
13314;BME280;6725;48.112;11.604;2023-04-25T02:38:25;94627.91;;;7.27;100.00
13314;BME280;6725;48.112;11.604;2023-04-25T02:40:50;94626.72;;;7.28;100.00
13314;BME280;6725;48.112;11.604;2023-04-25T02:43:15;94620.88;;;7.33;100.00
13314;BME280;6725;48.112;11.604;2023-04-25T02:45:41;94622.41;;;7.34;100.00
13314;BME280;6725;48.112;11.604;2023-04-25T02:48:06;94624.75;;;7.32;100.00
13314;BME280;6725;48.112;11.604;2023-04-25T02:50:32;94625.91;;;7.31;100.00
13314;BME280;6725;48.112;11.604;2023-04-25T02:52:57;94627.09;;;7.30;100.00
13314;BME280;6725;48.112;11.604;2023-04-25T02:55:22;94624.75;;;7.32;100.00
13314;BME280;6725;48.112;11.604;2023-04-25T02:57:48;94620.03;;;7.36;100.00
13314;BME280;6725;48.112;11.604;2023-04-25T03:00:13;94626.25;;;7.40;100.00
13314;BME280;6725;48.112;11.604;2023-04-25T03:02:39;94628.53;;;7.45;100.00
13314;BME280;6725;48.112;11.604;2023-04-25T03:05:04;94626.16;;;7.47;100.00
13314;BME280;6725;48.112;11.604;2023-04-25T03:07:31;94624.22;;;7.51;100.00
13314;BME280;6725;48.112;11.604;2023-04-25T03:09:56;94624.56;;;7.53;100.00
13314;BME280;6725;48.112;11.604;2023-04-25T03:12:21;94632.69;;;7.57;100.00
13314;BME280;6725;48.112;11.604;2023-04-25T03:14:47;94632.25;;;7.58;100.00
13314;BME280;6725;48.112;11.604;2023-04-25T03:17:12;94630.66;;;7.64;100.00
13314;BME280;6725;48.112;11.604;2023-04-25T03:19:38;94614.00;;;7.62;100.00
13314;BME280;6725;48.112;11.604;2023-04-25T03:22:03;94612.03;;;7.63;100.00
13314;BME280;6725;48.112;11.604;2023-04-25T03:24:28;94616.69;;;7.66;100.00
13314;BME280;6725;48.112;11.604;2023-04-25T03:26:54;94608.13;;;7.67;100.00
13314;BME280;6725;48.112;11.604;2023-04-25T03:29:19;94606.22;;;7.64;100.00
13314;BME280;6725;48.112;11.604;2023-04-25T03:31:49;94601.97;;;7.63;100.00
13314;BME280;6725;48.112;11.604;2023-04-25T03:34:14;94601.16;;;7.66;100.00
13314;BME280;6725;48.112;11.604;2023-04-25T03:36:40;94599.59;;;7.65;100.00
13314;BME280;6725;48.112;11.604;2023-04-25T03:39:05;94597.34;;;7.60;100.00
13314;BME280;6725;48.112;11.604;2023-04-25T03:41:31;94605.81;;;7.66;100.00
13314;BME280;6725;48.112;11.604;2023-04-25T03:43:56;94603.22;;;7.55;100.00
13314;BME280;6725;48.112;11.604;2023-04-25T03:46:21;94601.28;;;7.52;100.00
13314;BME280;6725;48.112;11.604;2023-04-25T03:48:47;94596.66;;;7.49;100.00
13314;BME280;6725;48.112;11.604;2023-04-25T03:51:12;94599.66;;;7.58;100.00
13314;BME280;6725;48.112;11.604;2023-04-25T03:53:38;94597.84;;;7.48;100.00
13314;BME280;6725;48.112;11.604;2023-04-25T03:56:03;94594.28;;;7.55;100.00
13314;BME280;6725;48.112;11.604;2023-04-25T03:58:29;94604.00;;;7.52;100.00
13314;BME280;6725;48.112;11.604;2023-04-25T04:00:54;94603.63;;;7.54;100.00
13314;BME280;6725;48.112;11.604;2023-04-25T04:03:19;94603.16;;;7.59;100.00
13314;BME280;6725;48.112;11.604;2023-04-25T04:05:45;94595.94;;;7.45;100.00
13314;BME280;6725;48.112;11.604;2023-04-25T04:08:11;94597.50;;;7.43;100.00
13314;BME280;6725;48.112;11.604;2023-04-25T04:10:37;94589.75;;;7.41;100.00
13314;BME280;6725;48.112;11.604;2023-04-25T04:13:02;94586.66;;;7.43;100.00
13314;BME280;6725;48.112;11.604;2023-04-25T04:15:28;94589.72;;;7.45;100.00
13314;BME280;6725;48.112;11.604;2023-04-25T04:17:53;94590.56;;;7.38;100.00
13314;BME280;6725;48.112;11.604;2023-04-25T04:20:19;94588.25;;;7.37;100.00
13314;BME280;6725;48.112;11.604;2023-04-25T04:22:45;94585.91;;;7.39;100.00
13314;BME280;6725;48.112;11.604;2023-04-25T04:25:10;94580.84;;;7.41;100.00
13314;BME280;6725;48.112;11.604;2023-04-25T04:27:37;94573.47;;;7.38;100.00
13314;BME280;6725;48.112;11.604;2023-04-25T04:30:03;94569.63;;;7.35;100.00
13314;BME280;6725;48.112;11.604;2023-04-25T04:32:28;94578.97;;;7.34;100.00
13314;BME280;6725;48.112;11.604;2023-04-25T04:34:55;94566.50;;;7.40;100.00
13314;BME280;6725;48.112;11.604;2023-04-25T04:37:21;94569.97;;;7.41;100.00
13314;BME280;6725;48.112;11.604;2023-04-25T04:39:47;94578.75;;;7.55;100.00
13314;BME280;6725;48.112;11.604;2023-04-25T04:42:12;94588.91;;;7.51;100.00
13314;BME280;6725;48.112;11.604;2023-04-25T04:44:38;94586.53;;;7.53;100.00
13314;BME280;6725;48.112;11.604;2023-04-25T04:47:04;94597.78;;;7.55;100.00
13314;BME280;6725;48.112;11.604;2023-04-25T04:49:31;94599.75;;;7.51;100.00
13314;BME280;6725;48.112;11.604;2023-04-25T04:51:56;94608.25;;;7.57;100.00
13314;BME280;6725;48.112;11.604;2023-04-25T04:54:22;94599.31;;;7.56;100.00
13314;BME280;6725;48.112;11.604;2023-04-25T04:56:47;94595.00;;;7.62;100.00
13314;BME280;6725;48.112;11.604;2023-04-25T04:59:12;94593.81;;;7.63;100.00
13314;BME280;6725;48.112;11.604;2023-04-25T05:01:38;94585.13;;;7.75;100.00
13314;BME280;6725;48.112;11.604;2023-04-25T05:04:03;94584.72;;;7.80;100.00
13314;BME280;6725;48.112;11.604;2023-04-25T05:06:29;94574.91;;;7.86;100.00
13314;BME280;6725;48.112;11.604;2023-04-25T05:08:56;94582.66;;;7.91;100.00
13314;BME280;6725;48.112;11.604;2023-04-25T05:11:22;94586.03;;;7.99;100.00
13314;BME280;6725;48.112;11.604;2023-04-25T05:13:49;94587.53;;;8.03;100.00
13314;BME280;6725;48.112;11.604;2023-04-25T05:16:15;94590.66;;;8.02;100.00
13314;BME280;6725;48.112;11.604;2023-04-25T05:18:40;94597.78;;;7.92;100.00
13314;BME280;6725;48.112;11.604;2023-04-25T05:21:06;94593.16;;;7.89;100.00
13314;BME280;6725;48.112;11.604;2023-04-25T05:23:32;94595.47;;;7.91;100.00
13314;BME280;6725;48.112;11.604;2023-04-25T05:25:58;94585.25;;;7.98;100.00
13314;BME280;6725;48.112;11.604;2023-04-25T05:28:24;94584.84;;;8.03;100.00
13314;BME280;6725;48.112;11.604;2023-04-25T05:30:49;94592.84;;;8.14;100.00
13314;BME280;6725;48.112;11.604;2023-04-25T05:33:15;94584.28;;;8.15;100.00
13314;BME280;6725;48.112;11.604;2023-04-25T05:35:41;94585.06;;;8.16;100.00
13314;BME280;6725;48.112;11.604;2023-04-25T05:38:06;94591.94;;;8.27;100.00
13314;BME280;6725;48.112;11.604;2023-04-25T05:40:32;94589.94;;;8.31;100.00
13314;BME280;6725;48.112;11.604;2023-04-25T05:42:57;94580.97;;;8.34;100.00
13314;BME280;6725;48.112;11.604;2023-04-25T05:45:22;94582.47;;;8.39;100.00
13314;BME280;6725;48.112;11.604;2023-04-25T05:47:48;94583.16;;;8.46;100.00
13314;BME280;6725;48.112;11.604;2023-04-25T05:50:13;94576.59;;;8.70;100.00
13314;BME280;6725;48.112;11.604;2023-04-25T05:52:38;94573.69;;;9.07;100.00
13314;BME280;6725;48.112;11.604;2023-04-25T05:55:04;94578.56;;;9.42;100.00
13314;BME280;6725;48.112;11.604;2023-04-25T05:57:30;94587.34;;;9.73;100.00
13314;BME280;6725;48.112;11.604;2023-04-25T05:59:55;94615.63;;;10.45;100.00
13314;BME280;6725;48.112;11.604;2023-04-25T06:02:21;94615.34;;;10.75;100.00
13314;BME280;6725;48.112;11.604;2023-04-25T06:04:48;94626.53;;;10.45;100.00
13314;BME280;6725;48.112;11.604;2023-04-25T06:07:14;94617.59;;;10.01;100.00
13314;BME280;6725;48.112;11.604;2023-04-25T06:09:40;94620.72;;;9.34;100.00
13314;BME280;6725;48.112;11.604;2023-04-25T06:12:06;94624.38;;;9.01;100.00
13314;BME280;6725;48.112;11.604;2023-04-25T06:14:32;94634.31;;;8.55;100.00
13314;BME280;6725;48.112;11.604;2023-04-25T06:16:57;94624.63;;;8.24;100.00
13314;BME280;6725;48.112;11.604;2023-04-25T06:19:23;94606.97;;;8.02;100.00
13314;BME280;6725;48.112;11.604;2023-04-25T06:21:48;94580.75;;;7.85;100.00
13314;BME280;6725;48.112;11.604;2023-04-25T06:24:13;94559.22;;;7.67;100.00
13314;BME280;6725;48.112;11.604;2023-04-25T06:26:39;94552.47;;;7.45;100.00
13314;BME280;6725;48.112;11.604;2023-04-25T06:29:04;94522.38;;;7.29;100.00
13314;BME280;6725;48.112;11.604;2023-04-25T06:31:30;94515.31;;;7.35;100.00
13314;BME280;6725;48.112;11.604;2023-04-25T06:33:57;94482.72;;;7.35;100.00
13314;BME280;6725;48.112;11.604;2023-04-25T06:36:22;94446.16;;;7.47;100.00
13314;BME280;6725;48.112;11.604;2023-04-25T06:38:50;94429.34;;;7.55;100.00
13314;BME280;6725;48.112;11.604;2023-04-25T06:41:16;94397.50;;;7.56;100.00
13314;BME280;6725;48.112;11.604;2023-04-25T06:43:42;94345.56;;;7.80;100.00
13314;BME280;6725;48.112;11.604;2023-04-25T06:46:07;94266.09;;;8.81;100.00
13314;BME280;6725;48.112;11.604;2023-04-25T06:48:32;94229.38;;;9.60;100.00
13314;BME280;6725;48.112;11.604;2023-04-25T06:50:58;94262.69;;;9.67;100.00
13314;BME280;6725;48.112;11.604;2023-04-25T06:53:23;94305.47;;;9.86;100.00
13314;BME280;6725;48.112;11.604;2023-04-25T06:55:48;94343.63;;;10.06;100.00
13314;BME280;6725;48.112;11.604;2023-04-25T06:58:14;94378.31;;;10.22;100.00
13314;BME280;6725;48.112;11.604;2023-04-25T07:00:39;94418.94;;;10.52;100.00
13314;BME280;6725;48.112;11.604;2023-04-25T07:03:04;94435.28;;;10.84;100.00
13314;BME280;6725;48.112;11.604;2023-04-25T07:05:30;94483.75;;;10.80;100.00
13314;BME280;6725;48.112;11.604;2023-04-25T07:07:55;94507.56;;;10.63;100.00
13314;BME280;6725;48.112;11.604;2023-04-25T07:10:21;94519.72;;;10.43;100.00
13314;BME280;6725;48.112;11.604;2023-04-25T07:12:46;94525.78;;;10.14;100.00
13314;BME280;6725;48.112;11.604;2023-04-25T07:15:11;94520.13;;;10.05;100.00
13314;BME280;6725;48.112;11.604;2023-04-25T07:17:37;94523.09;;;9.91;100.00
13314;BME280;6725;48.112;11.604;2023-04-25T07:20:04;94512.19;;;9.91;100.00
13314;BME280;6725;48.112;11.604;2023-04-25T07:22:30;94507.38;;;9.79;100.00
13314;BME280;6725;48.112;11.604;2023-04-25T07:24:56;94503.03;;;9.82;100.00
13314;BME280;6725;48.112;11.604;2023-04-25T07:27:21;94509.88;;;9.70;100.00
13314;BME280;6725;48.112;11.604;2023-04-25T07:29:46;94499.34;;;9.72;100.00
13314;BME280;6725;48.112;11.604;2023-04-25T07:32:12;94491.22;;;9.88;100.00
13314;BME280;6725;48.112;11.604;2023-04-25T07:34:38;94477.03;;;9.97;100.00
13314;BME280;6725;48.112;11.604;2023-04-25T07:37:04;94480.88;;;10.19;100.00
13314;BME280;6725;48.112;11.604;2023-04-25T07:39:30;94490.75;;;10.49;100.00
13314;BME280;6725;48.112;11.604;2023-04-25T07:41:55;94496.94;;;10.85;100.00
13314;BME280;6725;48.112;11.604;2023-04-25T07:44:21;94504.59;;;11.22;100.00
13314;BME280;6725;48.112;11.604;2023-04-25T07:46:47;94523.47;;;11.77;100.00
13314;BME280;6725;48.112;11.604;2023-04-25T07:49:12;94535.94;;;12.35;100.00
13314;BME280;6725;48.112;11.604;2023-04-25T07:51:37;94560.16;;;13.62;100.00
13314;BME280;6725;48.112;11.604;2023-04-25T07:54:03;94576.59;;;15.34;100.00
13314;BME280;6725;48.112;11.604;2023-04-25T07:56:28;94597.53;;;17.57;100.00
13314;BME280;6725;48.112;11.604;2023-04-25T07:58:53;94596.00;;;19.31;100.00
13314;BME280;6725;48.112;11.604;2023-04-25T08:01:19;94596.00;;;19.31;100.00
13314;BME280;6725;48.112;11.604;2023-04-25T08:03:46;94598.38;;;18.19;100.00
13314;BME280;6725;48.112;11.604;2023-04-25T08:06:11;94615.94;;;17.51;100.00
13314;BME280;6725;48.112;11.604;2023-04-25T08:08:37;94617.47;;;18.93;100.00
13314;BME280;6725;48.112;11.604;2023-04-25T08:11:03;94602.41;;;19.87;100.00
13314;BME280;6725;48.112;11.604;2023-04-25T08:13:28;94606.03;;;19.29;100.00
13314;BME280;6725;48.112;11.604;2023-04-25T08:15:53;94602.72;;;17.64;100.00
13314;BME280;6725;48.112;11.604;2023-04-25T08:18:19;94607.94;;;17.11;100.00
13314;BME280;6725;48.112;11.604;2023-04-25T08:20:45;94605.72;;;16.83;100.00
13314;BME280;6725;48.112;11.604;2023-04-25T08:23:10;94606.88;;;17.59;100.00
13314;BME280;6725;48.112;11.604;2023-04-25T08:25:36;94611.09;;;18.49;100.00
13314;BME280;6725;48.112;11.604;2023-04-25T08:28:01;94604.63;;;16.89;100.00
13314;BME280;6725;48.112;11.604;2023-04-25T08:30:28;94605.44;;;16.54;100.00
13314;BME280;6725;48.112;11.604;2023-04-25T08:32:53;94606.31;;;16.32;100.00
13314;BME280;6725;48.112;11.604;2023-04-25T08:35:20;94611.78;;;15.96;100.00
13314;BME280;6725;48.112;11.604;2023-04-25T08:37:45;94609.25;;;16.56;100.00
13314;BME280;6725;48.112;11.604;2023-04-25T08:40:12;94609.44;;;15.68;100.00
13314;BME280;6725;48.112;11.604;2023-04-25T08:42:41;94610.28;;;15.16;100.00
13314;BME280;6725;48.112;11.604;2023-04-25T08:45:08;94615.84;;;15.25;100.00
13314;BME280;6725;48.112;11.604;2023-04-25T08:47:34;94614.88;;;15.98;100.00
13314;BME280;6725;48.112;11.604;2023-04-25T08:50:02;94617.28;;;17.14;100.00
13314;BME280;6725;48.112;11.604;2023-04-25T08:52:32;94612.13;;;17.48;100.00
13314;BME280;6725;48.112;11.604;2023-04-25T08:54:58;94627.16;;;16.97;100.00
13314;BME280;6725;48.112;11.604;2023-04-25T08:57:26;94626.66;;;16.17;100.00
13314;BME280;6725;48.112;11.604;2023-04-25T08:59:51;94620.63;;;15.73;100.00
13314;BME280;6725;48.112;11.604;2023-04-25T09:02:18;94622.25;;;16.37;100.00
13314;BME280;6725;48.112;11.604;2023-04-25T09:04:45;94626.22;;;16.91;100.00
13314;BME280;6725;48.112;11.604;2023-04-25T09:07:11;94625.22;;;17.21;100.00
13314;BME280;6725;48.112;11.604;2023-04-25T09:09:37;94626.00;;;18.66;100.00
13314;BME280;6725;48.112;11.604;2023-04-25T09:12:02;94620.56;;;19.53;86.96
13314;BME280;6725;48.112;11.604;2023-04-25T09:14:28;94628.28;;;19.98;76.07
13314;BME280;6725;48.112;11.604;2023-04-25T09:19:32;94624.63;;;20.41;69.31
13314;BME280;6725;48.112;11.604;2023-04-25T09:22:01;94627.97;;;21.98;63.15
13314;BME280;6725;48.112;11.604;2023-04-25T09:24:44;94627.97;;;21.98;63.15
13314;BME280;6725;48.112;11.604;2023-04-25T09:27:12;94631.44;;;22.24;59.00
13314;BME280;6725;48.112;11.604;2023-04-25T09:29:39;94623.84;;;22.73;55.55
13314;BME280;6725;48.112;11.604;2023-04-25T09:32:25;94624.97;;;22.07;56.16
13314;BME280;6725;48.112;11.604;2023-04-25T09:34:52;94636.28;;;21.93;55.07
13314;BME280;6725;48.112;11.604;2023-04-25T09:37:21;94634.47;;;20.22;60.95
13314;BME280;6725;48.112;11.604;2023-04-25T09:39:49;94645.00;;;19.25;65.44
13314;BME280;6725;48.112;11.604;2023-04-25T09:42:15;94649.88;;;18.63;69.60
13314;BME280;6725;48.112;11.604;2023-04-25T09:44:42;94631.75;;;17.83;77.42
13314;BME280;6725;48.112;11.604;2023-04-25T09:47:13;94638.44;;;17.17;80.63
13314;BME280;6725;48.112;11.604;2023-04-25T09:49:40;94638.50;;;16.54;86.85
13314;BME280;6725;48.112;11.604;2023-04-25T09:52:06;94637.28;;;16.55;86.24
13314;BME280;6725;48.112;11.604;2023-04-25T09:54:32;94636.53;;;16.45;88.96
13314;BME280;6725;48.112;11.604;2023-04-25T09:57:00;94637.16;;;17.45;86.93
13314;BME280;6725;48.112;11.604;2023-04-25T09:59:29;94640.47;;;17.58;86.19
13314;BME280;6725;48.112;11.604;2023-04-25T10:01:57;94636.31;;;17.12;79.42
13314;BME280;6725;48.112;11.604;2023-04-25T10:04:24;94642.50;;;16.89;81.07
13314;BME280;6725;48.112;11.604;2023-04-25T10:06:52;94639.22;;;16.27;84.10
13314;BME280;6725;48.112;11.604;2023-04-25T10:09:20;94631.13;;;16.32;89.75
13314;BME280;6725;48.112;11.604;2023-04-25T10:11:46;94633.13;;;16.32;88.02
13314;BME280;6725;48.112;11.604;2023-04-25T10:14:16;94639.94;;;15.82;92.75
13314;BME280;6725;48.112;11.604;2023-04-25T10:16:42;94635.00;;;15.68;97.53
13314;BME280;6725;48.112;11.604;2023-04-25T10:19:09;94638.38;;;15.72;98.38
13314;BME280;6725;48.112;11.604;2023-04-25T10:21:39;94628.88;;;15.64;99.43
13314;BME280;6725;48.112;11.604;2023-04-25T10:24:05;94625.34;;;17.35;89.35
13314;BME280;6725;48.112;11.604;2023-04-25T10:26:31;94625.28;;;18.80;80.08
13314;BME280;6725;48.112;11.604;2023-04-25T10:28:59;94620.59;;;20.08;69.70
13314;BME280;6725;48.112;11.604;2023-04-25T10:31:26;94624.03;;;20.57;66.07
13314;BME280;6725;48.112;11.604;2023-04-25T10:33:53;94624.16;;;19.59;61.93
13314;BME280;6725;48.112;11.604;2023-04-25T10:36:20;94623.97;;;19.19;65.03
13314;BME280;6725;48.112;11.604;2023-04-25T10:38:49;94628.69;;;18.13;71.59
13314;BME280;6725;48.112;11.604;2023-04-25T10:41:17;94624.91;;;17.28;78.10
13314;BME280;6725;48.112;11.604;2023-04-25T10:43:47;94647.66;;;16.32;100.00
13314;BME280;6725;48.112;11.604;2023-04-25T10:46:29;94673.88;;;14.32;100.00
13314;BME280;6725;48.112;11.604;2023-04-25T10:48:58;94658.28;;;12.79;100.00
13314;BME280;6725;48.112;11.604;2023-04-25T10:51:29;94655.56;;;12.22;100.00
13314;BME280;6725;48.112;11.604;2023-04-25T10:54:02;94660.59;;;11.63;100.00
13314;BME280;6725;48.112;11.604;2023-04-25T10:56:32;94661.22;;;11.35;100.00
13314;BME280;6725;48.112;11.604;2023-04-25T10:59:09;94660.91;;;11.33;100.00
13314;BME280;6725;48.112;11.604;2023-04-25T11:01:40;94667.88;;;11.18;100.00
13314;BME280;6725;48.112;11.604;2023-04-25T11:04:06;94666.69;;;11.19;100.00
13314;BME280;6725;48.112;11.604;2023-04-25T11:09:27;94676.84;;;11.70;100.00
13314;BME280;6725;48.112;11.604;2023-04-25T11:11:57;94681.97;;;11.84;100.00
13314;BME280;6725;48.112;11.604;2023-04-25T11:14:25;94681.78;;;11.91;100.00
13314;BME280;6725;48.112;11.604;2023-04-25T11:16:58;94688.53;;;12.02;100.00
13314;BME280;6725;48.112;11.604;2023-04-25T11:19:27;94687.13;;;12.26;100.00
13314;BME280;6725;48.112;11.604;2023-04-25T11:21:56;94696.78;;;12.31;100.00
13314;BME280;6725;48.112;11.604;2023-04-25T11:24:27;94701.56;;;12.27;100.00
13314;BME280;6725;48.112;11.604;2023-04-25T11:26:53;94702.09;;;12.22;100.00
13314;BME280;6725;48.112;11.604;2023-04-25T11:29:22;94713.22;;;12.15;100.00
13314;BME280;6725;48.112;11.604;2023-04-25T11:31:47;94707.84;;;11.79;100.00
13314;BME280;6725;48.112;11.604;2023-04-25T11:34:17;94719.84;;;11.50;100.00
13314;BME280;6725;48.112;11.604;2023-04-25T11:36:43;94721.28;;;11.38;100.00
13314;BME280;6725;48.112;11.604;2023-04-25T11:39:09;94722.16;;;11.16;100.00
13314;BME280;6725;48.112;11.604;2023-04-25T11:41:37;94735.66;;;11.07;100.00
13314;BME280;6725;48.112;11.604;2023-04-25T11:44:03;94731.75;;;11.24;100.00
13314;BME280;6725;48.112;11.604;2023-04-25T11:46:28;94741.53;;;10.86;100.00
13314;BME280;6725;48.112;11.604;2023-04-25T11:48:55;94744.97;;;11.45;100.00
13314;BME280;6725;48.112;11.604;2023-04-25T11:51:21;94747.53;;;11.52;100.00
13314;BME280;6725;48.112;11.604;2023-04-25T11:53:46;94744.84;;;11.68;100.00
13314;BME280;6725;48.112;11.604;2023-04-25T11:56:12;94746.75;;;11.51;100.00
13314;BME280;6725;48.112;11.604;2023-04-25T11:59:00;94753.25;;;11.41;100.00
13314;BME280;6725;48.112;11.604;2023-04-25T12:01:30;94750.63;;;11.54;100.00
13314;BME280;6725;48.112;11.604;2023-04-25T12:03:57;94753.69;;;11.56;100.00
13314;BME280;6725;48.112;11.604;2023-04-25T12:06:27;94753.84;;;11.49;100.00
13314;BME280;6725;48.112;11.604;2023-04-25T12:09:20;94756.94;;;11.51;100.00
13314;BME280;6725;48.112;11.604;2023-04-25T12:11:54;94759.16;;;11.56;100.00
13314;BME280;6725;48.112;11.604;2023-04-25T12:14:27;94759.63;;;11.35;100.00
13314;BME280;6725;48.112;11.604;2023-04-25T12:16:58;94758.78;;;11.38;100.00
13314;BME280;6725;48.112;11.604;2023-04-25T12:19:24;94765.94;;;11.32;100.00
13314;BME280;6725;48.112;11.604;2023-04-25T12:21:51;94759.47;;;11.06;100.00
13314;BME280;6725;48.112;11.604;2023-04-25T12:24:25;94753.31;;;11.02;100.00
13314;BME280;6725;48.112;11.604;2023-04-25T12:27:03;94756.69;;;10.90;100.00
13314;BME280;6725;48.112;11.604;2023-04-25T12:29:30;94764.50;;;10.88;100.00
13314;BME280;6725;48.112;11.604;2023-04-25T12:31:56;94757.22;;;11.01;100.00
13314;BME280;6725;48.112;11.604;2023-04-25T12:34:23;94760.28;;;11.03;100.00
13314;BME280;6725;48.112;11.604;2023-04-25T12:36:49;94747.13;;;10.98;100.00
13314;BME280;6725;48.112;11.604;2023-04-25T12:39:24;94755.63;;;11.04;100.00
13314;BME280;6725;48.112;11.604;2023-04-25T12:41:53;94756.63;;;11.10;100.00
13314;BME280;6725;48.112;11.604;2023-04-25T12:44:21;94762.38;;;11.15;100.00
13314;BME280;6725;48.112;11.604;2023-04-25T12:46:48;94758.06;;;11.18;100.00
13314;BME280;6725;48.112;11.604;2023-04-25T12:49:13;94757.41;;;11.30;100.00
13314;BME280;6725;48.112;11.604;2023-04-25T12:51:39;94756.84;;;11.19;100.00
13314;BME280;6725;48.112;11.604;2023-04-25T12:54:06;94769.31;;;11.20;100.00
13314;BME280;6725;48.112;11.604;2023-04-25T12:56:32;94768.38;;;11.46;100.00
13314;BME280;6725;48.112;11.604;2023-04-25T12:58:58;94770.09;;;11.40;100.00
13314;BME280;6725;48.112;11.604;2023-04-25T13:01:24;94779.31;;;11.46;100.00